Time;durP1;ratioP1;P1;durP2;ratioP2;P2;SDS_P1;SDS_P2;PMS_P1;PMS_P2;Temp;Humidity;BMP_temperature;BMP_pressure;BME280_temperature;BME280_humidity;BME280_pressure;Samples;Min_cycle;Max_cycle;Signal;HPM_P1;HPM_P2
2023/05/27 00:00:01;;;;;;;26.40;3.80;;;9.30;90.90;;;;;;5015122;28;20507;-65
2023/05/27 00:02:27;;;;;;;19.52;2.63;;;9.30;99.90;;;;;;5016241;28;20052;-66
2023/05/27 00:04:52;;;;;;;24.05;4.18;;;9.30;99.90;;;;;;5016109;28;20045;-65
2023/05/27 00:07:18;;;;;;;23.58;3.90;;;9.30;96.50;;;;;;5015534;28;20045;-65
2023/05/27 00:09:44;;;;;;;22.73;3.08;;;9.30;99.90;;;;;;5020015;28;20048;-65
2023/05/27 00:12:10;;;;;;;18.17;3.08;;;9.30;99.90;;;;;;5018202;28;20423;-65
2023/05/27 00:14:35;;;;;;;17.85;3.17;;;9.30;99.90;;;;;;5016394;28;20196;-65
2023/05/27 00:17:01;;;;;;;24.33;3.67;;;9.40;99.90;;;;;;5001231;28;20051;-65
2023/05/27 00:19:29;;;;;;;23.20;3.95;;;9.40;99.90;;;;;;5000026;28;20052;-65
2023/05/27 00:21:55;;;;;;;21.55;4.05;;;9.40;99.90;;;;;;5004541;28;20044;-65
2023/05/27 00:24:21;;;;;;;23.98;3.88;;;9.50;99.90;;;;;;5046082;28;20335;-65
2023/05/27 00:26:47;;;;;;;17.00;3.03;;;9.50;98.70;;;;;;5017114;28;20033;-65
2023/05/27 00:29:13;;;;;;;17.58;3.25;;;9.50;93.80;;;;;;5015613;28;20449;-66
2023/05/27 00:31:39;;;;;;;19.85;3.15;;;9.50;91.90;;;;;;5017338;28;20041;-65
2023/05/27 00:34:04;;;;;;;15.60;2.35;;;9.60;89.10;;;;;;5014870;28;20259;-65
2023/05/27 00:36:33;;;;;;;23.50;3.80;;;9.60;96.80;;;;;;5014454;28;20113;-65
2023/05/27 00:39:00;;;;;;;20.75;2.70;;;9.60;80.70;;;;;;5020392;28;20041;-66
2023/05/27 00:41:26;;;;;;;25.30;3.40;;;9.60;93.20;;;;;;5048096;28;20037;-65
2023/05/27 00:43:52;;;;;;;22.60;3.30;;;9.60;59.40;;;;;;5041978;28;20041;-65
2023/05/27 00:46:19;;;;;;;18.13;3.45;;;9.60;20.00;;;;;;5046492;28;20045;-65
2023/05/27 00:48:46;;;;;;;16.23;3.17;;;9.70;1.00;;;;;;4998852;28;20063;-65
2023/05/27 00:51:11;;;;;;;17.80;3.50;;;9.70;1.00;;;;;;5048393;28;20036;-65
2023/05/27 00:53:43;;;;;;;25.42;3.70;;;9.70;1.00;;;;;;5015752;28;20049;-65
2023/05/27 00:56:10;;;;;;;17.23;2.88;;;9.70;1.00;;;;;;5015584;28;20640;-65
2023/05/27 00:58:36;;;;;;;22.88;3.53;;;9.60;1.00;;;;;;5048762;28;20073;-65
2023/05/27 01:01:03;;;;;;;22.23;3.30;;;9.60;1.00;;;;;;5030891;28;20126;-65
2023/05/27 01:03:32;;;;;;;22.52;3.05;;;9.50;1.00;;;;;;5015598;28;20045;-65
2023/05/27 01:06:07;;;;;;;19.38;2.58;;;9.60;1.00;;;;;;5016926;28;20204;-65
2023/05/27 01:08:47;;;;;;;23.38;4.07;;;9.50;1.00;;;;;;5014432;28;20045;-65
2023/05/27 01:11:15;;;;;;;22.05;3.42;;;9.60;1.00;;;;;;5018905;28;20068;-66
2023/05/27 01:13:49;;;;;;;16.17;2.88;;;9.50;1.00;;;;;;5017819;28;20277;-65
2023/05/27 01:16:17;;;;;;;18.95;3.10;;;9.60;1.00;;;;;;5027539;28;20052;-65
2023/05/27 01:18:46;;;;;;;20.02;3.13;;;9.60;1.00;;;;;;5015649;28;20076;-66
2023/05/27 01:21:15;;;;;;;21.73;3.50;;;9.60;1.00;;;;;;5047570;28;20053;-65
2023/05/27 01:23:46;;;;;;;21.45;4.47;;;9.60;1.00;;;;;;5031865;28;20045;-66
2023/05/27 01:26:12;;;;;;;22.85;3.58;;;9.70;1.00;;;;;;5046048;28;20150;-65
2023/05/27 01:28:38;;;;;;;23.83;3.65;;;9.70;1.00;;;;;;5032164;28;20041;-66
2023/05/27 01:31:12;;;;;;;16.85;3.20;;;9.70;1.00;;;;;;5045568;28;20045;-65
2023/05/27 01:33:41;;;;;;;21.02;3.83;;;9.70;1.00;;;;;;5047028;28;20302;-66
2023/05/27 01:36:13;;;;;;;25.50;3.40;;;9.70;1.00;;;;;;5015066;28;20040;-66
2023/05/27 01:38:42;;;;;;;21.40;3.45;;;9.70;1.00;;;;;;5046730;28;20338;-66
2023/05/27 01:41:09;;;;;;;19.50;2.97;;;9.70;1.00;;;;;;5046033;28;20053;-66
2023/05/27 01:43:37;;;;;;;21.70;3.28;;;9.80;1.00;;;;;;5048652;28;20041;-65
2023/05/27 01:46:03;;;;;;;19.52;3.92;;;9.70;1.00;;;;;;5013886;28;20689;-65
2023/05/27 01:48:30;;;;;;;18.63;3.20;;;9.70;1.00;;;;;;5017140;28;20160;-65
2023/05/27 01:50:56;;;;;;;21.00;3.28;;;9.70;1.00;;;;;;5047174;28;20041;-65
2023/05/27 01:53:21;;;;;;;20.30;3.60;;;9.70;1.00;;;;;;5016577;28;20056;-65
2023/05/27 01:55:47;;;;;;;15.38;2.55;;;9.60;1.00;;;;;;5029441;28;20036;-65
2023/05/27 01:58:13;;;;;;;19.08;3.47;;;9.60;1.00;;;;;;5014368;28;20049;-65
2023/05/27 02:00:38;;;;;;;18.95;3.10;;;9.60;1.00;;;;;;5035642;28;20041;-66
2023/05/27 02:03:04;;;;;;;23.05;3.85;;;9.60;1.00;;;;;;5031464;28;20513;-65
2023/05/27 02:05:30;;;;;;;18.00;3.45;;;9.50;99.90;;;;;;5016038;28;20404;-66
2023/05/27 02:07:56;;;;;;;21.27;3.22;;;9.50;99.90;;;;;;5014332;28;20322;-65
2023/05/27 02:10:21;;;;;;;23.67;4.43;;;9.40;1.00;;;;;;5045643;28;20116;-66
2023/05/27 02:12:50;;;;;;;19.02;3.03;;;9.40;99.90;;;;;;5011542;28;20037;-66
2023/05/27 02:15:16;;;;;;;16.80;2.92;;;9.40;99.90;;;;;;5030179;28;20091;-65
2023/05/27 02:17:44;;;;;;;18.05;3.00;;;9.30;99.90;;;;;;5012539;28;20742;-65
2023/05/27 02:20:11;;;;;;;19.75;3.30;;;9.30;1.00;;;;;;5016262;28;20084;-65
2023/05/27 02:22:36;;;;;;;24.55;3.58;;;9.30;1.00;;;;;;5030834;28;20134;-66
2023/05/27 02:25:02;;;;;;;16.65;3.35;;;9.30;1.00;;;;;;5012436;28;20136;-65
2023/05/27 02:27:28;;;;;;;22.90;3.42;;;9.40;1.00;;;;;;5044976;28;20071;-66
2023/05/27 02:29:53;;;;;;;23.30;3.45;;;9.40;1.00;;;;;;5016205;28;20676;-66
2023/05/27 02:32:19;;;;;;;23.13;3.80;;;9.50;1.00;;;;;;5013719;28;20041;-65
2023/05/27 02:34:45;;;;;;;21.33;3.92;;;9.60;1.00;;;;;;5015110;28;20091;-66
2023/05/27 02:37:11;;;;;;;20.10;3.10;;;9.70;1.00;;;;;;5016247;28;20037;-67
2023/05/27 02:39:36;;;;;;;22.08;3.38;;;9.70;1.00;;;;;;5012885;28;20093;-66
2023/05/27 02:42:02;;;;;;;22.17;3.55;;;9.70;1.00;;;;;;5012087;28;20107;-65
2023/05/27 02:44:28;;;;;;;21.25;3.75;;;9.80;1.00;;;;;;5014428;28;20209;-66
2023/05/27 02:46:53;;;;;;;19.63;3.40;;;9.80;1.00;;;;;;5017076;28;20037;-65
2023/05/27 02:49:19;;;;;;;21.77;3.65;;;9.80;1.00;;;;;;5054460;28;20313;-65
2023/05/27 02:51:45;;;;;;;21.63;3.15;;;9.80;99.90;;;;;;5019073;28;20266;-65
2023/05/27 02:54:10;;;;;;;22.70;4.25;;;9.90;99.90;;;;;;5034153;28;20394;-66
2023/05/27 02:56:36;;;;;;;22.35;5.97;;;9.90;1.00;;;;;;5035834;28;20543;-66
2023/05/27 02:59:02;;;;;;;21.85;4.35;;;9.90;1.00;;;;;;5021046;28;20060;-66
2023/05/27 03:01:27;;;;;;;20.02;3.33;;;9.90;99.90;;;;;;5052366;28;20274;-65
2023/05/27 03:03:53;;;;;;;25.75;3.35;;;9.90;99.90;;;;;;5021330;28;20033;-66
2023/05/27 03:06:19;;;;;;;22.67;3.47;;;10.00;99.90;;;;;;4986044;28;20088;-66
2023/05/27 03:08:45;;;;;;;19.98;3.58;;;10.00;99.90;;;;;;5019117;28;20323;-66
2023/05/27 03:11:11;;;;;;;20.38;3.28;;;10.00;99.90;;;;;;5019787;28;20038;-66
2023/05/27 03:13:37;;;;;;;22.80;4.30;;;9.90;99.90;;;;;;5037267;28;20041;-66
2023/05/27 03:16:03;;;;;;;19.98;3.67;;;9.90;99.90;;;;;;5020333;28;20033;-66
2023/05/27 03:18:28;;;;;;;18.23;3.63;;;9.80;99.90;;;;;;5019692;28;20149;-66
2023/05/27 03:20:54;;;;;;;24.85;3.60;;;9.70;99.90;;;;;;5021867;28;20033;-66
2023/05/27 03:23:20;;;;;;;21.08;3.72;;;9.70;99.90;;;;;;5019498;28;20543;-65
2023/05/27 03:25:46;;;;;;;19.65;3.08;;;9.60;99.90;;;;;;5018884;28;20052;-66
2023/05/27 03:28:11;;;;;;;17.55;3.47;;;9.60;99.90;;;;;;5037265;28;20575;-65
2023/05/27 03:30:38;;;;;;;17.63;3.20;;;9.50;99.90;;;;;;5019303;28;20428;-65
2023/05/27 03:33:03;;;;;;;17.77;3.65;;;9.40;99.90;;;;;;5034993;28;20045;-65
2023/05/27 03:35:29;;;;;;;16.75;3.28;;;9.40;99.90;;;;;;5020023;28;20084;-65
2023/05/27 03:37:55;;;;;;;19.30;3.53;;;9.40;99.90;;;;;;5005535;28;20113;-64
2023/05/27 03:40:20;;;;;;;19.73;3.75;;;9.40;1.00;;;;;;5034396;28;20288;-65
2023/05/27 03:42:46;;;;;;;22.88;3.70;;;9.50;1.00;;;;;;5018437;28;20033;-65
2023/05/27 03:45:12;;;;;;;26.55;4.18;;;9.50;1.00;;;;;;5002863;28;20618;-64
2023/05/27 03:47:38;;;;;;;18.85;3.33;;;9.50;1.00;;;;;;5022064;28;20527;-64
2023/05/27 03:50:05;;;;;;;22.55;3.65;;;9.50;1.00;;;;;;5021179;28;20113;-65
2023/05/27 03:52:30;;;;;;;23.92;3.55;;;9.40;1.00;;;;;;5050849;28;20200;-65
2023/05/27 03:54:56;;;;;;;23.38;3.63;;;9.40;1.00;;;;;;5020266;28;20040;-65
2023/05/27 03:57:22;;;;;;;22.23;3.28;;;9.50;1.00;;;;;;5016556;28;20095;-64
2023/05/27 03:59:47;;;;;;;17.92;3.40;;;9.50;1.00;;;;;;4983753;28;20336;-64
2023/05/27 04:02:13;;;;;;;24.42;3.95;;;9.50;1.00;;;;;;5017899;28;20037;-65
2023/05/27 04:04:39;;;;;;;23.77;3.97;;;9.50;1.00;;;;;;5017222;28;20144;-65
2023/05/27 04:07:04;;;;;;;25.15;4.03;;;9.50;1.00;;;;;;5017865;28;20053;-64
2023/05/27 04:09:30;;;;;;;19.75;3.60;;;9.50;1.00;;;;;;5018307;28;20033;-65
2023/05/27 04:11:56;;;;;;;19.25;3.75;;;9.50;1.00;;;;;;5015918;28;20294;-65
2023/05/27 04:14:22;;;;;;;24.15;3.92;;;9.50;1.00;;;;;;5016407;28;20698;-65
2023/05/27 04:16:48;;;;;;;18.77;3.53;;;9.50;1.00;;;;;;5019176;28;20305;-65
2023/05/27 04:19:13;;;;;;;22.25;3.70;;;9.60;1.00;;;;;;4998718;28;20049;-64
2023/05/27 04:21:39;;;;;;;14.77;3.10;;;9.60;1.00;;;;;;5016173;28;20292;-64
2023/05/27 04:24:05;;;;;;;16.75;3.00;;;9.60;1.00;;;;;;5032259;28;20501;-64
2023/05/27 04:26:32;;;;;;;18.95;3.75;;;9.70;1.00;;;;;;5015730;28;20049;-64
2023/05/27 04:29:03;;;;;;;28.25;4.05;;;9.80;1.00;;;;;;5017378;28;20103;-65
2023/05/27 04:31:28;;;;;;;22.63;3.70;;;9.90;1.00;;;;;;5016108;28;20048;-65
2023/05/27 04:33:55;;;;;;;20.92;3.75;;;10.00;1.00;;;;;;4983184;28;20034;-66
2023/05/27 04:36:25;;;;;;;21.52;3.60;;;10.10;1.00;;;;;;5018229;28;20919;-65
2023/05/27 04:38:51;;;;;;;19.92;4.03;;;10.20;1.00;;;;;;5030723;28;20755;-65
2023/05/27 04:41:19;;;;;;;21.30;3.90;;;10.40;1.00;;;;;;5015643;28;20295;-65
2023/05/27 04:43:46;;;;;;;24.98;3.97;;;10.50;1.00;;;;;;5000195;28;20045;-65
2023/05/27 04:46:12;;;;;;;23.20;3.70;;;10.70;1.00;;;;;;5013394;28;20037;-65
2023/05/27 04:48:38;;;;;;;21.90;3.47;;;10.80;99.90;;;;;;5014166;28;20412;-65
2023/05/27 04:51:04;;;;;;;23.67;4.28;;;11.00;99.90;;;;;;5048063;28;20399;-65
2023/05/27 04:53:30;;;;;;;19.98;3.33;;;11.10;99.90;;;;;;4996713;28;20524;-65
2023/05/27 04:55:56;;;;;;;21.63;3.55;;;11.30;99.90;;;;;;5015642;28;20122;-65
2023/05/27 04:58:22;;;;;;;19.73;4.22;;;11.40;99.90;;;;;;4997727;28;20085;-65
2023/05/27 05:00:52;;;;;;;20.65;3.95;;;11.40;99.90;;;;;;5016945;28;20165;-65
2023/05/27 05:03:22;;;;;;;25.15;3.92;;;11.40;99.90;;;;;;4998003;28;20447;-65
2023/05/27 05:05:52;;;;;;;22.52;3.83;;;11.40;99.90;;;;;;5046919;28;20553;-65
2023/05/27 05:08:19;;;;;;;21.67;3.80;;;11.40;99.90;;;;;;5016142;28;20229;-65
2023/05/27 05:10:49;;;;;;;23.08;3.90;;;11.40;99.90;;;;;;5014020;28;20080;-65
2023/05/27 05:13:16;;;;;;;26.95;4.15;;;11.30;99.90;;;;;;5018919;28;20305;-66
2023/05/27 05:15:43;;;;;;;30.27;4.40;;;11.30;99.90;;;;;;5033187;28;20041;-65
2023/05/27 05:18:10;;;;;;;19.92;4.10;;;11.30;99.90;;;;;;5014870;28;20052;-65
2023/05/27 05:20:36;;;;;;;19.35;3.97;;;11.30;99.90;;;;;;5018432;28;20338;-66
2023/05/27 05:23:01;;;;;;;20.85;3.33;;;11.30;99.90;;;;;;5000427;28;20057;-65
2023/05/27 05:25:29;;;;;;;21.35;3.65;;;11.30;99.90;;;;;;5014825;28;20048;-65
2023/05/27 05:27:55;;;;;;;24.70;4.28;;;11.30;99.90;;;;;;5015319;28;20467;-65
2023/05/27 05:30:21;;;;;;;21.80;3.92;;;11.30;99.90;;;;;;4998857;28;20037;-66
2023/05/27 05:32:48;;;;;;;22.08;4.25;;;11.50;99.90;;;;;;4998552;28;20071;-65
2023/05/27 05:35:14;;;;;;;21.90;4.03;;;11.60;99.90;;;;;;5016509;28;20098;-66
2023/05/27 05:37:39;;;;;;;24.77;4.25;;;11.90;99.90;;;;;;4999847;28;20078;-66
2023/05/27 05:40:06;;;;;;;21.30;4.22;;;11.90;99.90;;;;;;5017865;28;20512;-66
2023/05/27 05:42:31;;;;;;;18.85;3.65;;;11.90;99.90;;;;;;5029182;28;20353;-67
2023/05/27 05:44:57;;;;;;;28.13;4.20;;;11.80;99.90;;;;;;4999024;28;20037;-65
2023/05/27 05:47:23;;;;;;;23.50;4.25;;;11.80;99.90;;;;;;5016653;28;20057;-65
2023/05/27 05:49:49;;;;;;;23.20;3.72;;;11.90;99.90;;;;;;5031657;28;20042;-65
2023/05/27 05:52:15;;;;;;;18.77;4.10;;;12.00;99.90;;;;;;5016730;28;20240;-66
2023/05/27 05:54:40;;;;;;;27.80;4.95;;;12.10;99.90;;;;;;5013597;28;20109;-65
2023/05/27 05:57:06;;;;;;;18.77;3.47;;;12.30;99.90;;;;;;5015818;28;20221;-65
2023/05/27 05:59:32;;;;;;;17.77;3.92;;;12.50;99.90;;;;;;5037664;28;20103;-66
2023/05/27 06:01:57;;;;;;;20.77;4.38;;;12.60;99.90;;;;;;5015067;28;20206;-65
2023/05/27 06:04:23;;;;;;;20.13;4.10;;;12.80;99.90;;;;;;5013328;28;20403;-65
2023/05/27 06:06:49;;;;;;;17.88;3.45;;;12.90;99.90;;;;;;5031115;28;20543;-65
2023/05/27 06:09:15;;;;;;;16.35;3.42;;;13.00;99.90;;;;;;5018923;28;20045;-65
2023/05/27 06:11:40;;;;;;;21.17;4.25;;;13.10;99.90;;;;;;4994668;28;20511;-65
2023/05/27 06:14:07;;;;;;;23.02;4.45;;;13.30;99.90;;;;;;4996146;28;20049;-65
2023/05/27 06:16:35;;;;;;;22.10;4.22;;;13.40;99.90;;;;;;4994626;28;20111;-65
2023/05/27 06:19:01;;;;;;;23.10;4.53;;;13.60;99.90;;;;;;5029472;28;20149;-65
2023/05/27 06:21:29;;;;;;;21.00;3.78;;;13.80;99.90;;;;;;5045689;28;20276;-65
2023/05/27 06:23:55;;;;;;;24.98;4.57;;;13.90;99.90;;;;;;5063145;28;20041;-65
2023/05/27 06:26:21;;;;;;;18.55;4.18;;;14.00;99.90;;;;;;5010715;28;20052;-65
2023/05/27 06:28:49;;;;;;;17.50;4.05;;;14.20;99.90;;;;;;5011326;28;20045;-66
2023/05/27 06:31:15;;;;;;;25.40;4.70;;;14.30;99.90;;;;;;5030739;28;20417;-65
2023/05/27 06:33:42;;;;;;;20.02;4.13;;;14.40;99.90;;;;;;5034655;28;20041;-65
2023/05/27 06:36:07;;;;;;;20.38;3.90;;;14.50;99.90;;;;;;4977830;28;20045;-65
2023/05/27 06:38:33;;;;;;;19.98;4.03;;;14.50;99.90;;;;;;5013508;28;20047;-66
2023/05/27 06:40:59;;;;;;;18.45;4.15;;;14.70;99.90;;;;;;4999131;28;20056;-65
2023/05/27 06:43:24;;;;;;;22.85;4.57;;;14.80;99.90;;;;;;5016818;28;20300;-66
2023/05/27 06:45:50;;;;;;;20.73;4.07;;;14.60;99.90;;;;;;5028726;28;20587;-65
2023/05/27 06:48:16;;;;;;;23.50;4.28;;;14.70;99.90;;;;;;4998593;28;20235;-65
2023/05/27 06:50:41;;;;;;;21.88;3.97;;;14.80;99.90;;;;;;5046235;28;20203;-65
2023/05/27 06:53:07;;;;;;;17.70;3.88;;;14.90;99.90;;;;;;5012858;28;21228;-65
2023/05/27 06:55:33;;;;;;;19.67;4.00;;;14.90;96.30;;;;;;5014113;28;20423;-65
2023/05/27 06:57:59;;;;;;;19.52;4.72;;;15.20;91.10;;;;;;5019017;28;20120;-65
2023/05/27 07:00:25;;;;;;;21.75;4.38;;;15.20;37.80;;;;;;5015207;28;20098;-66
2023/05/27 07:02:51;;;;;;;25.08;4.75;;;15.20;45.40;;;;;;5028846;28;20444;-65
2023/05/27 07:05:17;;;;;;;20.35;4.78;;;15.30;20.30;;;;;;5014066;28;20079;-66
2023/05/27 07:07:42;;;;;;;16.73;4.00;;;15.30;1.00;;;;;;5028185;28;20471;-66
2023/05/27 07:10:08;;;;;;;23.33;4.53;;;15.40;1.00;;;;;;5014054;28;20121;-66
2023/05/27 07:12:34;;;;;;;20.60;4.38;;;15.30;1.00;;;;;;5011961;28;20122;-66
2023/05/27 07:15:00;;;;;;;21.08;4.93;;;15.40;1.00;;;;;;5012947;28;20067;-66
2023/05/27 07:17:25;;;;;;;20.35;4.43;;;15.50;1.00;;;;;;5011268;28;20056;-66
2023/05/27 07:19:51;;;;;;;15.90;3.85;;;15.60;1.00;;;;;;5005651;28;20071;-67
2023/05/27 07:22:17;;;;;;;18.52;4.22;;;15.80;1.00;;;;;;5014141;28;20045;-67
2023/05/27 07:24:43;;;;;;;17.48;4.32;;;16.10;1.00;;;;;;5030513;28;20342;-66
2023/05/27 07:27:12;;;;;;;15.55;3.95;;;16.20;1.00;;;;;;5043585;28;20038;-66
2023/05/27 07:29:37;;;;;;;18.88;4.35;;;16.30;1.00;;;;;;4995621;28;20582;-66
2023/05/27 07:32:03;;;;;;;18.60;3.90;;;16.40;1.00;;;;;;5026713;28;20098;-66
2023/05/27 07:34:30;;;;;;;18.38;3.95;;;16.30;99.90;;;;;;5024195;28;20044;-66
2023/05/27 07:36:56;;;;;;;16.40;3.83;;;16.50;99.90;;;;;;4998683;28;20523;-66
2023/05/27 07:39:23;;;;;;;18.20;4.03;;;16.50;99.90;;;;;;4998809;28;20037;-66
2023/05/27 07:41:48;;;;;;;23.35;4.53;;;16.50;99.90;;;;;;4998673;28;20931;-67
2023/05/27 07:44:14;;;;;;;19.25;4.50;;;16.50;99.90;;;;;;5015742;28;20040;-66
2023/05/27 07:46:41;;;;;;;15.13;3.70;;;16.60;99.90;;;;;;5017380;28;20404;-66
2023/05/27 07:49:10;;;;;;;18.25;3.92;;;16.50;99.90;;;;;;5020893;28;20422;-66
2023/05/27 07:51:38;;;;;;;19.45;4.70;;;16.50;99.90;;;;;;5014633;28;20390;-66
2023/05/27 07:54:04;;;;;;;15.90;3.97;;;16.60;99.90;;;;;;5013202;28;20156;-66
2023/05/27 07:56:29;;;;;;;16.92;4.45;;;17.00;99.90;;;;;;5029746;28;20054;-66
2023/05/27 07:58:55;;;;;;;22.02;4.40;;;16.80;99.90;;;;;;5013919;28;20045;-66
2023/05/27 08:01:21;;;;;;;17.45;4.57;;;17.00;99.90;;;;;;4996889;28;20057;-66
2023/05/27 08:03:46;;;;;;;20.77;4.00;;;17.10;99.90;;;;;;4996915;28;20249;-66
2023/05/27 08:06:12;;;;;;;14.70;3.80;;;17.20;99.90;;;;;;5012922;28;20351;-66
2023/05/27 08:08:37;;;;;;;18.40;4.28;;;17.50;99.90;;;;;;5029358;28;20128;-67
2023/05/27 08:11:03;;;;;;;20.80;4.28;;;17.80;99.90;;;;;;5013272;28;20037;-66
2023/05/27 08:13:29;;;;;;;19.15;4.40;;;17.70;99.90;;;;;;5032286;28;20115;-67
2023/05/27 08:15:54;;;;;;;17.50;4.00;;;17.90;99.90;;;;;;5048467;28;20578;-66
2023/05/27 08:18:21;;;;;;;13.18;3.45;;;18.00;99.90;;;;;;5065384;28;20364;-66
2023/05/27 08:20:47;;;;;;;18.15;4.45;;;18.10;2.60;;;;;;5014897;28;20067;-66
2023/05/27 08:23:13;;;;;;;17.67;4.25;;;18.00;99.90;;;;;;5031900;28;20052;-66
2023/05/27 08:25:39;;;;;;;18.50;4.72;;;18.00;95.50;;;;;;5015137;28;20909;-66
2023/05/27 08:28:04;;;;;;;20.05;4.68;;;17.80;99.90;;;;;;5015466;28;20136;-66
2023/05/27 08:30:30;;;;;;;15.82;4.18;;;17.60;99.90;;;;;;5032790;28;20446;-66
2023/05/27 08:32:57;;;;;;;15.90;4.28;;;17.80;73.10;;;;;;5031955;28;20129;-66
2023/05/27 08:35:23;;;;;;;19.58;4.13;;;17.80;94.50;;;;;;5015606;28;20151;-67
2023/05/27 08:37:49;;;;;;;17.20;4.28;;;17.80;99.90;;;;;;5064844;28;20709;-66
2023/05/27 08:40:16;;;;;;;17.02;3.97;;;17.80;99.90;;;;;;5031294;28;20041;-66
2023/05/27 08:42:42;;;;;;;20.10;4.55;;;18.20;99.90;;;;;;5031530;28;20052;-67
2023/05/27 08:45:09;;;;;;;18.13;4.30;;;18.30;5.90;;;;;;5031299;28;20052;-66
2023/05/27 08:47:35;;;;;;;17.30;4.32;;;18.10;17.70;;;;;;5031012;28;20064;-67
2023/05/27 08:50:02;;;;;;;17.70;4.30;;;18.40;54.80;;;;;;5031112;28;20423;-67
2023/05/27 08:52:28;;;;;;;17.50;4.22;;;18.40;46.20;;;;;;5031013;28;20036;-66
2023/05/27 08:54:56;;;;;;;19.23;4.47;;;18.50;1.00;;;;;;5031013;28;20053;-67
2023/05/27 08:57:24;;;;;;;20.05;4.35;;;18.70;1.00;;;;;;5031554;28;20045;-67
2023/05/27 08:59:51;;;;;;;15.32;4.28;;;18.80;1.00;;;;;;5031429;28;20066;-66
2023/05/27 09:02:18;;;;;;;20.02;5.13;;;19.10;1.00;;;;;;5014209;28;20261;-67
2023/05/27 09:04:46;;;;;;;20.27;4.82;;;19.00;1.00;;;;;;5030974;28;20044;-67
2023/05/27 09:07:12;;;;;;;17.25;4.70;;;18.80;1.00;;;;;;5030887;28;20544;-67
2023/05/27 09:09:39;;;;;;;15.27;3.90;;;18.60;1.00;;;;;;5031416;28;20037;-67
2023/05/27 09:12:05;;;;;;;14.60;4.20;;;19.20;1.00;;;;;;5014526;28;20098;-67
2023/05/27 09:14:33;;;;;;;17.83;4.25;;;19.50;1.00;;;;;;5030579;28;20128;-67
2023/05/27 09:17:05;;;;;;;17.20;4.68;;;19.60;1.00;;;;;;5030811;28;20499;-67
2023/05/27 09:19:31;;;;;;;16.45;4.00;;;19.60;1.00;;;;;;5031226;28;20533;-67
2023/05/27 09:21:57;;;;;;;13.95;3.95;;;20.10;99.90;;;;;;5014219;28;20324;-67
2023/05/27 09:24:24;;;;;;;15.57;4.45;;;20.10;99.90;;;;;;5030867;28;20044;-67
2023/05/27 09:26:54;;;;;;;15.00;3.65;;;20.00;99.90;;;;;;5013852;28;20049;-67
2023/05/27 09:29:25;;;;;;;11.07;2.80;;;19.90;99.90;;;;;;5030677;28;20052;-67
2023/05/27 09:31:57;;;;;;;13.68;3.35;;;19.80;99.90;;;;;;5031300;28;20036;-67
2023/05/27 09:34:22;;;;;;;13.93;2.90;;;19.60;99.90;;;;;;5031238;28;20037;-67
2023/05/27 09:36:50;;;;;;;13.60;3.47;;;19.50;99.90;;;;;;5014720;28;20551;-66
2023/05/27 09:39:18;;;;;;;13.45;3.53;;;19.50;99.90;;;;;;5030561;28;20053;-67
2023/05/27 09:41:53;;;;;;;10.00;2.17;;;19.70;99.90;;;;;;5030528;28;20314;-67
2023/05/27 09:44:19;;;;;;;11.18;2.35;;;20.00;99.90;;;;;;5047488;28;20127;-67
2023/05/27 09:46:47;;;;;;;14.38;3.40;;;19.90;99.90;;;;;;5047320;28;20055;-67
2023/05/27 09:49:19;;;;;;;10.48;2.45;;;19.70;99.90;;;;;;5014889;28;20053;-67
2023/05/27 09:51:46;;;;;;;10.45;2.92;;;19.70;99.90;;;;;;5014084;28;20053;-67
2023/05/27 09:54:18;;;;;;;13.77;3.38;;;19.80;99.90;;;;;;5013968;28;20077;-67
2023/05/27 09:56:45;;;;;;;17.13;3.03;;;19.80;99.90;;;;;;5013049;28;20553;-67
2023/05/27 09:59:12;;;;;;;11.02;3.10;;;19.90;99.90;;;;;;5031130;28;20379;-67
2023/05/27 10:01:40;;;;;;;12.63;3.20;;;20.00;99.90;;;;;;5013761;28;20052;-67
2023/05/27 10:04:06;;;;;;;13.57;3.88;;;20.40;99.90;;;;;;5013676;28;20142;-67
2023/05/27 10:06:33;;;;;;;15.18;3.67;;;20.90;99.90;;;;;;5063072;28;20048;-67
2023/05/27 10:09:03;;;;;;;13.70;3.78;;;20.70;99.90;;;;;;5030347;28;20044;-67
2023/05/27 10:11:35;;;;;;;16.63;4.35;;;20.70;99.90;;;;;;5047112;28;20041;-67
2023/05/27 10:14:01;;;;;;;18.17;4.30;;;21.00;99.90;;;;;;5029993;28;20044;-67
2023/05/27 10:16:27;;;;;;;13.35;3.58;;;21.10;99.90;;;;;;5030035;28;20106;-67
2023/05/27 10:18:55;;;;;;;16.20;4.00;;;21.30;99.90;;;;;;5063352;28;20053;-67
2023/05/27 10:21:23;;;;;;;16.67;4.00;;;21.30;99.90;;;;;;5029597;28;20041;-67
2023/05/27 10:24:00;;;;;;;15.20;3.53;;;21.40;99.90;;;;;;5031272;28;20041;-67
2023/05/27 10:26:42;;;;;;;18.30;4.07;;;21.70;99.90;;;;;;5029436;28;20463;-67
2023/05/27 10:29:10;;;;;;;14.45;3.83;;;21.90;99.90;;;;;;5046190;28;20559;-67
2023/05/27 10:31:43;;;;;;;18.02;3.97;;;21.80;99.90;;;;;;5029454;28;20051;-67
2023/05/27 10:34:09;;;;;;;10.77;3.38;;;21.60;99.90;;;;;;5029819;28;20127;-67
2023/05/27 10:36:36;;;;;;;14.27;3.47;;;21.90;99.90;;;;;;5063145;28;20041;-68
2023/05/27 10:39:11;;;;;;;17.15;4.15;;;21.30;99.90;;;;;;5013721;28;20493;-67
2023/05/27 10:41:51;;;;;;;15.27;3.83;;;21.60;99.90;;;;;;5013256;28;20487;-67
2023/05/27 10:44:26;;;;;;;14.43;4.18;;;21.40;99.90;;;;;;5029792;28;20056;-67
2023/05/27 10:47:01;;;;;;;16.95;4.57;;;21.70;99.90;;;;;;5029602;28;20403;-67
2023/05/27 10:49:35;;;;;;;15.20;4.72;;;21.70;99.90;;;;;;5062784;28;20141;-67
2023/05/27 10:52:14;;;;;;;13.85;4.75;;;22.00;99.90;;;;;;5029547;28;20555;-67
2023/05/27 10:54:47;;;;;;;19.10;5.22;;;21.90;99.90;;;;;;5044510;28;20057;-68
2023/05/27 10:57:13;;;;;;;15.13;4.30;;;22.30;99.90;;;;;;5010419;28;20072;-67
2023/05/27 10:59:50;;;;;;;13.80;4.20;;;22.50;99.90;;;;;;5011541;28;20048;-67
2023/05/27 11:02:19;;;;;;;17.45;4.97;;;22.10;99.90;;;;;;5054640;28;20037;-68
2023/05/27 11:04:50;;;;;;;15.05;4.47;;;22.50;99.90;;;;;;5055057;28;20053;-66
2023/05/27 11:07:21;;;;;;;14.60;4.38;;;22.80;99.90;;;;;;5025125;28;20045;-67
2023/05/27 11:09:48;;;;;;;15.82;4.65;;;22.70;99.90;;;;;;5044310;28;20044;-68
2023/05/27 11:12:53;;;;;;;16.33;4.88;;;22.90;99.90;;;;;;5027821;28;20403;-67
2023/05/27 11:15:19;;;;;;;13.95;4.18;;;23.30;99.90;;;;;;5060324;28;20037;-67
2023/05/27 11:17:45;;;;;;;15.60;3.78;;;23.10;99.90;;;;;;5043186;28;20037;-68
2023/05/27 11:20:10;;;;;;;15.70;3.83;;;22.90;99.90;;;;;;5011676;28;20052;-67
2023/05/27 11:22:37;;;;;;;14.35;3.40;;;22.50;99.90;;;;;;5045103;28;20474;-67
2023/05/27 11:25:05;;;;;;;13.60;3.30;;;22.70;99.90;;;;;;5059475;28;20053;-67
2023/05/27 11:27:36;;;;;;;14.02;4.00;;;22.40;99.90;;;;;;5024801;28;20466;-68
2023/05/27 11:30:11;;;;;;;12.07;3.30;;;22.80;99.90;;;;;;5024318;28;20520;-68
2023/05/27 11:32:38;;;;;;;13.88;3.28;;;22.70;99.90;;;;;;5062885;28;20041;-68
2023/05/27 11:35:05;;;;;;;17.33;3.80;;;22.90;99.90;;;;;;5023365;28;20048;-67
2023/05/27 11:37:35;;;;;;;13.93;3.55;;;23.00;99.90;;;;;;5025421;28;20045;-67
2023/05/27 11:40:00;;;;;;;13.80;3.30;;;23.00;99.90;;;;;;5035924;28;20403;-67
2023/05/27 11:42:28;;;;;;;15.45;3.28;;;22.70;99.90;;;;;;5025381;28;20037;-67
2023/05/27 11:44:54;;;;;;;18.25;3.90;;;22.70;99.90;;;;;;5026602;28;20056;-68
2023/05/27 11:47:21;;;;;;;17.85;3.63;;;22.00;99.90;;;;;;5042586;28;20045;-68
2023/05/27 11:49:49;;;;;;;16.30;3.50;;;22.30;99.90;;;;;;5027288;28;20045;-68
2023/05/27 11:52:14;;;;;;;15.13;3.30;;;22.50;99.90;;;;;;5024467;28;20852;-67
2023/05/27 11:54:40;;;;;;;17.08;3.83;;;22.40;99.90;;;;;;5007141;28;20052;-67
2023/05/27 11:57:07;;;;;;;17.20;3.65;;;22.10;99.90;;;;;;5023403;28;20044;-67
2023/05/27 11:59:34;;;;;;;12.55;3.33;;;22.30;99.90;;;;;;5024112;28;20110;-67
2023/05/27 12:02:00;;;;;;;16.52;3.88;;;22.40;99.90;;;;;;5022084;28;20044;-67
2023/05/27 12:04:26;;;;;;;15.35;3.28;;;22.30;99.90;;;;;;5039731;28;20072;-68
2023/05/27 12:06:52;;;;;;;17.25;4.45;;;22.30;99.90;;;;;;5023872;28;20175;-68
2023/05/27 12:09:19;;;;;;;15.95;3.50;;;22.40;99.90;;;;;;5041472;28;20040;-67
2023/05/27 12:11:44;;;;;;;15.35;3.10;;;22.30;99.90;;;;;;5056471;28;20072;-67
2023/05/27 12:14:10;;;;;;;17.63;3.53;;;22.20;99.90;;;;;;4990580;28;20034;-68
2023/05/27 12:16:36;;;;;;;17.00;4.00;;;22.00;99.90;;;;;;5022512;28;20049;-69
2023/05/27 12:19:01;;;;;;;21.25;4.38;;;21.90;99.90;;;;;;5053044;28;20049;-68
2023/05/27 12:21:46;;;;;;;18.58;3.90;;;21.70;99.90;;;;;;5039639;28;20572;-68
2023/05/27 12:24:13;;;;;;;17.02;4.10;;;21.90;99.90;;;;;;5038139;28;20037;-67
2023/05/27 12:26:40;;;;;;;19.67;3.85;;;22.00;99.90;;;;;;5022213;28;20868;-67
2023/05/27 12:29:06;;;;;;;19.83;4.13;;;21.90;99.90;;;;;;5053127;28;20056;-67
2023/05/27 12:31:31;;;;;;;15.18;3.15;;;22.20;99.90;;;;;;5003628;28;20041;-68
2023/05/27 12:33:57;;;;;;;18.55;3.92;;;22.30;99.90;;;;;;5004397;28;20506;-67
2023/05/27 12:36:23;;;;;;;17.85;3.88;;;22.30;99.90;;;;;;5036995;28;20431;-67
2023/05/27 12:38:48;;;;;;;17.77;3.75;;;22.00;99.90;;;;;;5055217;28;20079;-67
2023/05/27 12:41:15;;;;;;;20.50;4.28;;;22.20;99.90;;;;;;5005090;28;20095;-67